createdAt,value
2019-05-15T00:02:43.028Z,24
2019-05-15T00:07:43.389Z,22
2019-05-15T00:12:43.531Z,33
2019-05-15T00:17:43.545Z,22
2019-05-15T00:22:43.028Z,23
2019-05-15T00:27:42.804Z,22
2019-05-15T00:32:43.604Z,23
2019-05-15T00:37:45.761Z,22
2019-05-15T00:42:42.694Z,21
2019-05-15T00:47:43.661Z,22
2019-05-15T00:52:43.430Z,23
2019-05-15T00:57:43.572Z,23
2019-05-15T01:02:43.024Z,22
2019-05-15T01:07:43.438Z,21
2019-05-15T01:12:42.198Z,22
2019-05-15T01:17:43.352Z,22
2019-05-15T01:22:43.671Z,22
2019-05-15T01:27:42.919Z,19
2019-05-15T01:32:43.758Z,20
2019-05-15T01:37:43.345Z,20
2019-05-15T01:42:42.915Z,20
2019-05-15T01:47:43.151Z,20
2019-05-15T01:52:43.127Z,22
2019-05-15T01:57:42.587Z,19
2019-05-15T02:02:43.083Z,22
2019-05-15T02:07:43.403Z,22
2019-05-15T02:12:42.997Z,21
2019-05-15T02:17:43.458Z,22
2019-05-15T02:22:48.347Z,20
2019-05-15T02:27:43.543Z,22
2019-05-15T02:32:43.875Z,22
2019-05-15T02:37:44.863Z,22
2019-05-15T02:42:44.360Z,22
2019-05-15T02:47:43.666Z,23
2019-05-15T02:52:49.662Z,20
2019-05-15T02:57:43.673Z,21
2019-05-15T03:02:45.270Z,22
2019-05-15T03:07:44.203Z,18
2019-05-15T03:12:44.782Z,20
2019-05-15T03:17:44.772Z,20
2019-05-15T03:22:45.349Z,19
2019-05-15T03:27:43.792Z,19
2019-05-15T03:33:09.828Z,18
2019-05-15T03:37:43.995Z,17
2019-05-15T03:42:43.587Z,17
2019-05-15T03:47:44.518Z,20
2019-05-15T03:52:43.883Z,18
2019-05-15T03:57:44.272Z,20
2019-05-15T04:02:43.822Z,19
2019-05-15T04:07:43.768Z,19
2019-05-15T04:12:44.621Z,19
2019-05-15T04:17:44.150Z,18
2019-05-15T04:22:44.010Z,16
2019-05-15T04:27:43.253Z,18
2019-05-15T04:32:44.152Z,18
2019-05-15T04:37:44.965Z,17
2019-05-15T04:42:44.104Z,19
2019-05-15T04:47:43.824Z,15
2019-05-15T04:52:49.901Z,16
2019-05-15T04:57:44.492Z,16
2019-05-15T05:02:44.364Z,17
2019-05-15T05:07:43.199Z,17
2019-05-15T05:12:50.539Z,17
2019-05-15T05:17:43.386Z,16
2019-05-15T05:22:43.513Z,17
2019-05-15T05:27:42.624Z,16
2019-05-15T05:32:43.258Z,18
2019-05-15T05:37:43.125Z,16
2019-05-15T05:42:43.369Z,14
2019-05-15T05:47:42.957Z,15
2019-05-15T05:52:43.434Z,15
2019-05-15T05:57:43.017Z,17
2019-05-15T06:02:54.521Z,16
2019-05-15T06:07:43.111Z,16
2019-05-15T06:12:43.323Z,15
2019-05-15T06:17:43.641Z,17
2019-05-15T06:22:43.108Z,15
2019-05-15T06:27:43.423Z,15
2019-05-15T06:32:59.867Z,14
2019-05-15T06:37:43.915Z,14
2019-05-15T06:42:43.831Z,14
2019-05-15T06:47:45.253Z,14
2019-05-15T06:52:45.246Z,15
2019-05-15T06:57:45.211Z,17
2019-05-15T07:02:45.253Z,17
2019-05-15T07:07:45.236Z,17
2019-05-15T07:12:46.827Z,15
2019-05-15T07:17:45.228Z,17
2019-05-15T07:22:45.210Z,13
2019-05-15T07:27:45.189Z,15
2019-05-15T07:32:45.459Z,27
2019-05-15T07:37:45.258Z,14
2019-05-15T07:42:45.194Z,15
2019-05-15T07:47:45.196Z,15
2019-05-15T07:52:45.187Z,16
2019-05-15T07:57:45.328Z,17
2019-05-15T08:02:45.204Z,15
2019-05-15T08:07:45.929Z,14
2019-05-15T08:12:45.968Z,25
2019-05-15T08:18:12.880Z,16
2019-05-15T08:22:48.809Z,15
2019-05-15T08:27:48.415Z,17
2019-05-15T08:32:49.002Z,19
2019-05-15T08:37:45.919Z,15
2019-05-15T08:42:54.338Z,13
2019-05-15T08:47:45.917Z,16
2019-05-15T08:52:46.492Z,15
2019-05-15T08:57:55.398Z,15
2019-05-15T09:02:45.880Z,14
2019-05-15T09:07:45.920Z,25
2019-05-15T09:13:00.785Z,17
2019-05-15T09:17:48.176Z,16
2019-05-15T09:22:45.896Z,12
2019-05-15T09:27:45.908Z,16
2019-05-15T09:32:48.135Z,12
2019-05-15T09:37:45.845Z,14
2019-05-15T09:42:45.920Z,13
2019-05-15T09:47:48.290Z,13
2019-05-15T09:52:45.842Z,12
2019-05-15T09:57:45.851Z,12
2019-05-15T10:02:47.879Z,10
2019-05-15T10:07:45.857Z,12
2019-05-15T10:12:45.958Z,12
2019-05-15T10:17:45.834Z,13
2019-05-15T10:22:47.871Z,10
2019-05-15T10:27:48.166Z,14
2019-05-15T10:32:48.371Z,11
2019-05-15T10:37:48.503Z,11
2019-05-15T10:42:45.850Z,12
2019-05-15T10:47:45.830Z,10
2019-05-15T10:52:45.797Z,11
2019-05-15T10:57:48.510Z,13
2019-05-15T11:02:45.789Z,10
2019-05-15T11:07:48.046Z,11
2019-05-15T11:12:45.809Z,7
2019-05-15T11:17:45.779Z,5
2019-05-15T11:22:49.854Z,5
2019-05-15T11:27:48.187Z,6
2019-05-15T11:32:48.397Z,5
2019-05-15T11:37:58.478Z,4
2019-05-15T11:42:48.716Z,6
2019-05-15T11:47:48.112Z,4
2019-05-15T11:52:45.786Z,5
2019-05-15T11:57:55.676Z,7
2019-05-15T12:02:45.758Z,6
2019-05-15T12:07:49.782Z,7
2019-05-15T12:12:45.720Z,8
2019-05-15T12:17:48.293Z,9
2019-05-15T12:22:48.267Z,10
2019-05-15T12:27:48.489Z,8
2019-05-15T12:34:25.667Z,10
2019-05-15T12:37:45.736Z,10
2019-05-15T13:02:49.035Z,12
2019-05-15T13:07:45.673Z,10
2019-05-15T13:13:09.345Z,9
2019-05-15T13:17:45.687Z,10
2019-05-15T13:27:45.736Z,10
2019-05-15T13:32:45.686Z,9
2019-05-15T13:37:45.704Z,8
2019-05-15T13:42:48.078Z,8
2019-05-15T13:47:45.691Z,10
2019-05-15T13:52:48.061Z,9
2019-05-15T13:57:45.710Z,8
2019-05-15T14:02:47.825Z,8
2019-05-15T14:07:58.153Z,8
2019-05-15T14:12:47.686Z,7
2019-05-15T14:17:45.678Z,9
2019-05-15T14:22:52.456Z,9
2019-05-15T14:27:52.695Z,9
2019-05-15T14:32:52.491Z,11
2019-05-15T14:38:10.285Z,9
2019-05-15T14:42:52.580Z,9
2019-05-15T14:47:51.402Z,9
2019-05-15T14:52:52.194Z,8
2019-05-15T14:57:52.804Z,9
2019-05-15T15:02:51.603Z,9
2019-05-15T15:07:53.100Z,9
2019-05-15T15:12:52.181Z,11
2019-05-15T15:17:51.468Z,10
2019-05-15T15:22:52.545Z,8
2019-05-15T15:27:52.052Z,9
2019-05-15T15:32:53.490Z,10
2019-05-15T15:37:50.915Z,10
2019-05-15T15:42:52.546Z,11
2019-05-15T15:47:52.383Z,10
2019-05-15T15:52:51.044Z,12
2019-05-15T15:57:52.715Z,13
2019-05-15T16:02:52.087Z,14
2019-05-15T16:07:50.632Z,9
2019-05-15T16:12:51.227Z,14
2019-05-15T16:17:51.056Z,15
2019-05-15T16:22:50.769Z,12
2019-05-15T16:27:50.964Z,12
2019-05-15T16:32:49.842Z,10
2019-05-15T16:37:51.351Z,12
2019-05-15T16:42:50.978Z,12
2019-05-15T16:47:52.096Z,13
2019-05-15T16:52:51.252Z,11
2019-05-15T16:57:52.025Z,10
2019-05-15T17:03:07.090Z,11
2019-05-15T17:07:51.052Z,12
2019-05-15T17:12:51.363Z,14
2019-05-15T17:17:50.823Z,15
2019-05-15T17:22:52.554Z,12
2019-05-15T17:27:49.832Z,13
2019-05-15T17:32:51.451Z,12
2019-05-15T17:37:50.874Z,12
2019-05-15T17:42:51.437Z,16
2019-05-15T17:47:50.888Z,17
2019-05-15T17:52:51.255Z,16
2019-05-15T17:58:02.418Z,23
2019-05-15T18:02:50.760Z,11
2019-05-15T18:07:51.027Z,18
2019-05-15T18:12:50.914Z,18
2019-05-15T18:17:52.201Z,22
2019-05-15T18:22:52.200Z,23
2019-05-15T18:27:52.261Z,22
2019-05-15T18:32:52.901Z,21
2019-05-15T18:37:52.346Z,16
2019-05-15T18:42:51.720Z,19
2019-05-15T18:47:52.187Z,19
2019-05-15T18:52:50.897Z,20
2019-05-15T18:57:52.687Z,20
2019-05-15T19:02:50.849Z,16
2019-05-15T19:07:52.786Z,20
2019-05-15T19:12:52.630Z,19
2019-05-15T19:17:52.353Z,20
2019-05-15T19:22:52.587Z,23
2019-05-15T19:27:50.470Z,22
2019-05-15T19:32:51.332Z,23
2019-05-15T19:37:52.943Z,21
2019-05-15T19:42:54.739Z,23
2019-05-15T19:47:51.959Z,21
2019-05-15T19:52:52.383Z,21
2019-05-15T19:57:50.428Z,22
2019-05-15T20:02:52.681Z,23
2019-05-15T20:07:52.130Z,21
2019-05-15T20:12:52.142Z,18
2019-05-15T20:17:52.040Z,18
2019-05-15T20:22:54.873Z,16
2019-05-15T20:27:52.300Z,16
2019-05-15T20:32:52.079Z,16
2019-05-15T20:37:52.673Z,16
2019-05-15T20:42:52.537Z,19
2019-05-15T20:47:50.432Z,16
2019-05-15T20:52:53.104Z,17
2019-05-15T20:57:54.413Z,13
2019-05-15T21:02:52.639Z,13
2019-05-15T21:07:53.548Z,15
2019-05-15T21:12:54.801Z,15
2019-05-15T21:18:17.185Z,16
2019-05-15T21:22:51.346Z,13
2019-05-15T21:27:52.815Z,14
2019-05-15T21:32:53.335Z,14
2019-05-15T21:37:52.937Z,15
2019-05-15T21:42:53.259Z,18
2019-05-15T21:47:50.341Z,15
2019-05-15T21:52:53.446Z,15
2019-05-15T21:57:50.408Z,15
2019-05-15T22:02:53.378Z,17
2019-05-15T22:07:53.392Z,22
2019-05-15T22:12:52.601Z,16
2019-05-15T22:17:53.385Z,16
2019-05-15T22:22:54.653Z,14
2019-05-15T22:27:53.057Z,15
2019-05-15T22:32:53.465Z,13
2019-05-15T22:37:51.407Z,12
2019-05-15T22:42:52.662Z,13
2019-05-15T22:47:52.456Z,13
2019-05-15T22:52:51.525Z,15
2019-05-15T22:57:52.296Z,13
2019-05-15T23:02:52.884Z,12
2019-05-15T23:07:52.384Z,12
2019-05-15T23:12:52.715Z,12
2019-05-15T23:17:52.807Z,15
2019-05-15T23:22:50.305Z,16
2019-05-15T23:27:52.498Z,22
2019-05-15T23:32:52.904Z,19
2019-05-15T23:37:52.761Z,21
2019-05-15T23:42:53.076Z,17
2019-05-15T23:47:52.693Z,18
2019-05-15T23:52:50.826Z,20
2019-05-15T23:57:52.493Z,19
